TimeCDT,TemperatureF,Dew PointF,Humidity,Sea Level PressureIn,VisibilityMPH,Wind Direction,Wind SpeedMPH,Gust SpeedMPH,PrecipitationIn,Events,Conditions,WindDirDegrees,DateUTC
12:54 AM,59.0,57.0,93,30.14,10.0,Calm,Calm,-,N/A,,Clear,0,2013-08-17 05:54:00
1:54 AM,57.0,55.9,96,30.15,9.0,Calm,Calm,-,N/A,,Clear,0,2013-08-17 06:54:00
2:54 AM,57.0,55.0,93,30.14,9.0,Calm,Calm,-,N/A,,Clear,0,2013-08-17 07:54:00
3:07 AM,55.4,55.4,100,30.15,1.5,Calm,Calm,-,N/A,,Clear,0,2013-08-17 08:07:00
3:15 AM,55.4,53.6,94,30.15,0.5,Calm,Calm,-,N/A,Fog,Fog,0,2013-08-17 08:15:00
3:22 AM,55.4,53.6,94,30.15,2.0,Calm,Calm,-,N/A,,Clear,0,2013-08-17 08:22:00
3:29 AM,55.4,53.6,94,30.15,6.0,Calm,Calm,-,N/A,,Clear,0,2013-08-17 08:29:00
3:54 AM,55.9,54.0,93,30.15,8.0,Calm,Calm,-,N/A,,Clear,0,2013-08-17 08:54:00
4:54 AM,55.9,54.0,93,30.15,8.0,Calm,Calm,-,N/A,,Clear,0,2013-08-17 09:54:00
5:54 AM,55.0,53.1,93,30.15,5.0,Calm,Calm,-,N/A,,Clear,0,2013-08-17 10:54:00
6:54 AM,57.0,55.0,93,30.16,7.0,Calm,Calm,-,N/A,,Partly Cloudy,0,2013-08-17 11:54:00
7:54 AM,61.0,57.0,87,30.17,10.0,Calm,Calm,-,N/A,,Clear,0,2013-08-17 12:54:00
8:54 AM,66.0,57.9,75,30.18,10.0,NNE,4.6,-,N/A,,Clear,30,2013-08-17 13:54:00
9:54 AM,71.1,57.0,61,30.17,10.0,ENE,5.8,-,N/A,,Scattered Clouds,70,2013-08-17 14:54:00
10:54 AM,73.0,55.9,55,30.18,10.0,ENE,5.8,-,N/A,,Scattered Clouds,60,2013-08-17 15:54:00
11:54 AM,77.0,57.0,50,30.17,10.0,NE,11.5,16.1,N/A,,Partly Cloudy,50,2013-08-17 16:54:00
12:54 PM,79.0,57.0,47,30.14,10.0,ENE,4.6,-,N/A,,Partly Cloudy,60,2013-08-17 17:54:00
1:54 PM,80.1,57.9,47,30.12,10.0,ENE,8.1,-,N/A,,Scattered Clouds,60,2013-08-17 18:54:00
2:54 PM,79.0,55.9,45,30.12,10.0,Calm,Calm,-,N/A,,Mostly Cloudy,0,2013-08-17 19:54:00
3:54 PM,81.0,57.9,45,30.10,10.0,ENE,6.9,-,N/A,,Mostly Cloudy,60,2013-08-17 20:54:00
4:54 PM,79.0,57.9,48,30.10,10.0,NNE,6.9,-,N/A,,Mostly Cloudy,20,2013-08-17 21:54:00
5:54 PM,79.0,59.0,50,30.09,10.0,NNE,6.9,-,N/A,,Partly Cloudy,20,2013-08-17 22:54:00
6:54 PM,78.1,59.0,52,30.09,10.0,NNE,5.8,-,N/A,,Clear,20,2013-08-17 23:54:00
7:54 PM,75.0,60.1,60,30.10,10.0,NE,4.6,-,N/A,,Mostly Cloudy,40,2013-08-18 00:54:00
8:54 PM,70.0,60.1,71,30.11,10.0,East,3.5,-,N/A,,Clear,100,2013-08-18 01:54:00
9:54 PM,64.9,61.0,87,30.11,10.0,Calm,Calm,-,N/A,,Clear,0,2013-08-18 02:54:00
10:54 PM,64.0,61.0,90,30.11,7.0,Calm,Calm,-,N/A,,Clear,0,2013-08-18 03:54:00
11:54 PM,63.0,61.0,93,30.12,6.0,Calm,Calm,-,N/A,,Clear,0,2013-08-18 04:54:00